Аэропорт
Владивосток (UHWW)

 UHWW / VVO
ЗЦ Хабаровск
Хабаровск (UHHH)
Хабаровск (UHHH)
 43.39900, 132.14800  / 46 ft

 UHWW 212030Z 27001MPS 7000 NSC M07/M07 Q1011 R25L/0///70 NOSIG RMK QFE757
 TAF AMD UHWW 211240Z 2113/2212 16003MPS 3100 -SHSN BKN011 BKN020CB BECMG 2115/2116 24003MPS BECMG 2117/2120 0300 FZFG VV002 BECMG 2123/2202 5000 -SHSN HZ SCT011 BKN025CB FM220400 34003MPS 9999 SCT030 TEMPO 2204/2212 34012MPS 4000 -SHSN BKN020CB
UHWW_aip_1709
показать схемы
Название сценария Тип сценария Flight Simulator 9 Flight Simulator X Prepar3D v2 Prepar3D v3 xPlane
UHWW, Vladivostok 1.0.0 X-Flight бесплатный
UHWW, Vladivostok 2017 v 1.2 бесплатный
uhww-scenery-fs9-1408 бесплатный
uhww-scenery-fsx-1304 бесплатный
uhww-scenery-p3d-1502 бесплатный



2017 © VATRUS division